Terminal Aerodrome Forecast
Issued by NWS Wichita, KS

Home | Current Version | Previous Version | Text Only | Print | Product List | Glossary On
Versions: 1 2 3 4 5 6 7 8 9 10 11 12 13 14 15 16 17 18 19 20 21 22
000
FTUS43 KICT 290520
TAFICT
TAF
KICT 290520Z 2906/3006 VRB06KT P6SM SCT080 BKN100
     FM290800 01007KT P6SM VCTS BKN060CB
      TEMPO 2909/2912 5SM -TSRA SCT030 BKN050CB
     FM291200 01006KT P6SM FEW250
     FM291800 10007KT P6SM SCT050 BKN100=

USA.gov is the U.S. government's official web portal to all federal, state and local government web resources and services.